createdAt,value
2022-08-19T00:01:43.542Z,87.50
2022-08-19T00:04:15.907Z,87.70
2022-08-19T00:06:45.135Z,87.90
2022-08-19T00:09:15.739Z,87.80
2022-08-19T00:11:44.688Z,87.80
2022-08-19T00:14:14.787Z,88.10
2022-08-19T00:16:44.138Z,88.30
2022-08-19T00:19:12.235Z,88.30
2022-08-19T00:21:40.572Z,88.40
2022-08-19T00:24:10.599Z,88.50
2022-08-19T00:26:38.712Z,88.20
2022-08-19T00:29:07.506Z,88.40
2022-08-19T00:31:34.953Z,88.40
2022-08-19T00:34:02.458Z,88.40
2022-08-19T00:36:30.164Z,88.40
2022-08-19T00:38:57.464Z,88.20
2022-08-19T00:41:25.091Z,88.10
2022-08-19T00:44:02.616Z,88.10
2022-08-19T00:46:30.120Z,88.00
2022-08-19T00:48:58.629Z,87.80
2022-08-19T00:51:31.531Z,88.40
2022-08-19T00:53:59.888Z,87.60
2022-08-19T00:56:27.994Z,87.60
2022-08-19T00:58:59.310Z,87.50
2022-08-19T01:01:27.206Z,87.50
2022-08-19T01:03:57.533Z,87.30
2022-08-19T01:06:27.174Z,87.20
2022-08-19T01:08:56.368Z,87.20
2022-08-19T01:11:23.711Z,87.10
2022-08-19T01:13:53.190Z,86.90
2022-08-19T01:16:23.097Z,87.70
2022-08-19T01:18:50.818Z,86.90
2022-08-19T01:21:40.899Z,86.90
2022-08-19T01:24:08.210Z,86.80
2022-08-19T01:26:44.615Z,87.20
2022-08-19T01:29:13.257Z,87.10
2022-08-19T01:31:42.263Z,87.20
2022-08-19T01:34:10.041Z,87.60
2022-08-19T01:36:46.625Z,88.10
2022-08-19T01:39:17.382Z,88.40
2022-08-19T01:41:44.705Z,88.40
2022-08-19T01:44:18.100Z,88.70
2022-08-19T01:46:48.933Z,89.10
2022-08-19T01:49:18.543Z,89.10
2022-08-19T01:51:45.858Z,89.40
2022-08-19T01:54:27.465Z,89.60
2022-08-19T01:57:06.025Z,89.60
2022-08-19T01:59:34.742Z,89.80
2022-08-19T02:02:02.288Z,89.70
2022-08-19T02:04:29.551Z,89.60
2022-08-19T02:06:58.389Z,89.50
2022-08-19T02:09:25.646Z,89.40
2022-08-19T02:11:52.976Z,89.20
2022-08-19T02:14:20.272Z,88.90
2022-08-19T02:16:47.571Z,88.90
2022-08-19T02:19:14.903Z,89.30
2022-08-19T02:21:42.513Z,88.80
2022-08-19T02:24:10.187Z,89.60
2022-08-19T02:26:37.541Z,88.90
2022-08-19T02:29:04.842Z,88.80
2022-08-19T02:31:32.243Z,88.70
2022-08-19T02:33:59.658Z,88.90
2022-08-19T02:36:27.382Z,88.50
2022-08-19T02:38:55.933Z,88.40
2022-08-19T02:41:28.269Z,88.50
2022-08-19T02:44:26.593Z,88.50
2022-08-19T02:46:51.618Z,88.90
2022-08-19T02:49:20.823Z,88.80
2022-08-19T02:51:48.642Z,88.50
2022-08-19T02:54:16.796Z,88.40
2022-08-19T02:56:44.851Z,88.20
2022-08-19T02:59:12.788Z,88.10
2022-08-19T03:01:43.054Z,88.00
2022-08-19T03:04:13.799Z,87.90
2022-08-19T03:06:43.638Z,87.70
2022-08-19T03:09:11.993Z,87.50
2022-08-19T03:11:39.373Z,87.50
2022-08-19T03:14:08.512Z,87.30
2022-08-19T03:16:42.615Z,87.30
2022-08-19T03:19:10.003Z,87.20
2022-08-19T03:21:37.423Z,87.00
2022-08-19T03:24:08.485Z,86.90
2022-08-19T03:26:40.412Z,86.90
2022-08-19T03:29:10.433Z,86.80
2022-08-19T03:31:44.795Z,86.80
2022-08-19T03:34:28.383Z,86.80
2022-08-19T03:36:58.672Z,86.80
2022-08-19T03:39:27.326Z,86.80
2022-08-19T03:42:38.082Z,86.70
2022-08-19T03:44:46.035Z,86.80
2022-08-19T03:47:16.858Z,86.80
2022-08-19T03:49:44.696Z,87.10
2022-08-19T03:52:12.442Z,87.30
2022-08-19T03:54:40.290Z,87.40
2022-08-19T03:57:07.935Z,87.60
2022-08-19T03:59:38.192Z,87.70
2022-08-19T04:02:11.318Z,87.70
2022-08-19T04:04:44.261Z,87.90
2022-08-19T04:07:16.745Z,88.00
2022-08-19T04:09:44.234Z,88.40
2022-08-19T04:12:11.579Z,88.70
2022-08-19T04:14:38.989Z,88.80
2022-08-19T04:17:06.513Z,88.60
2022-08-19T04:19:35.879Z,88.70
2022-08-19T04:22:03.675Z,88.70
2022-08-19T04:24:31.243Z,88.60
2022-08-19T04:27:01.174Z,88.60
2022-08-19T04:29:28.670Z,88.70
2022-08-19T04:31:57.230Z,88.80
2022-08-19T04:34:27.221Z,88.90
2022-08-19T04:36:56.193Z,88.60
2022-08-19T04:39:48.746Z,88.60
2022-08-19T04:42:36.600Z,88.40
2022-08-19T04:45:05.601Z,88.60
2022-08-19T04:47:47.115Z,88.40
2022-08-19T04:50:26.937Z,88.50
2022-08-19T04:52:54.644Z,88.60
2022-08-19T04:55:22.247Z,88.50
2022-08-19T04:57:49.916Z,88.50
2022-08-19T05:00:17.270Z,88.30
2022-08-19T05:02:44.579Z,88.30
2022-08-19T05:05:11.879Z,88.20
2022-08-19T05:07:39.859Z,88.10
2022-08-19T05:10:08.349Z,88.00
2022-08-19T05:12:35.684Z,88.00
2022-08-19T05:15:05.088Z,87.80
2022-08-19T05:17:38.087Z,87.70
2022-08-19T05:20:28.856Z,87.50
2022-08-19T05:22:56.329Z,87.50
2022-08-19T05:25:25.280Z,87.40
2022-08-19T05:27:52.653Z,87.30
2022-08-19T05:30:33.389Z,87.30
2022-08-19T05:33:12.302Z,87.30
2022-08-19T05:35:40.355Z,87.20
2022-08-19T05:38:09.223Z,87.20
2022-08-19T05:40:37.220Z,87.20
2022-08-19T05:43:06.471Z,87.20
2022-08-19T05:45:38.456Z,87.30
2022-08-19T05:48:06.021Z,87.50
2022-08-19T05:50:33.276Z,87.40
2022-08-19T05:53:00.611Z,87.50
2022-08-19T05:55:27.896Z,87.50
2022-08-19T05:58:03.166Z,87.40
2022-08-19T06:00:32.323Z,87.50
2022-08-19T06:03:09.610Z,87.60
2022-08-19T06:05:49.527Z,87.60
2022-08-19T06:08:19.704Z,87.70
2022-08-19T06:10:47.047Z,87.80
2022-08-19T06:13:14.428Z,88.00
2022-08-19T06:15:44.895Z,88.00
2022-08-19T06:18:14.324Z,88.00
2022-08-19T06:20:55.370Z,88.40
2022-08-19T06:23:24.276Z,87.80
2022-08-19T06:25:51.764Z,88.00
2022-08-19T06:28:19.297Z,88.00
2022-08-19T06:30:46.696Z,88.10
2022-08-19T06:33:13.994Z,88.10
2022-08-19T06:35:42.513Z,88.10
2022-08-19T06:38:10.599Z,88.00
2022-08-19T06:40:39.351Z,88.10
2022-08-19T06:43:08.602Z,88.00
2022-08-19T06:45:39.794Z,87.90
2022-08-19T06:48:08.037Z,87.80
2022-08-19T06:50:36.856Z,87.80
2022-08-19T06:53:07.082Z,87.70
2022-08-19T06:55:34.352Z,87.60
2022-08-19T06:58:05.283Z,87.70
2022-08-19T07:00:33.398Z,87.80
2022-08-19T07:03:04.562Z,87.60
2022-08-19T07:05:40.551Z,87.60
2022-08-19T07:08:12.660Z,87.70
2022-08-19T07:10:44.719Z,87.70
2022-08-19T07:13:12.596Z,87.50
2022-08-19T07:15:41.310Z,87.60
2022-08-19T07:18:11.725Z,87.50
2022-08-19T07:20:41.826Z,87.50
2022-08-19T07:23:15.994Z,87.50
2022-08-19T07:25:44.470Z,87.40
2022-08-19T07:28:23.052Z,86.70
2022-08-19T07:30:53.248Z,87.40
2022-08-19T07:33:20.911Z,87.50
2022-08-19T07:35:48.339Z,87.80
2022-08-19T07:38:17.383Z,88.00
2022-08-19T07:40:47.333Z,88.40
2022-08-19T07:43:17.337Z,88.60
2022-08-19T07:45:46.429Z,88.90
2022-08-19T07:48:13.936Z,88.60
2022-08-19T07:50:41.477Z,88.50
2022-08-19T07:53:08.768Z,88.60
2022-08-19T07:55:43.539Z,88.60
2022-08-19T07:58:14.815Z,88.70
2022-08-19T08:00:43.443Z,89.10
2022-08-19T08:03:11.937Z,88.90
2022-08-19T08:05:57.591Z,89.10
2022-08-19T08:08:44.530Z,89.10
2022-08-19T08:11:20.025Z,89.10
2022-08-19T08:14:01.060Z,89.60
2022-08-19T08:16:39.382Z,89.70
2022-08-19T08:19:14.755Z,89.70
2022-08-19T08:21:54.367Z,89.60
2022-08-19T08:24:21.968Z,89.50
2022-08-19T08:26:57.089Z,89.60
2022-08-19T08:29:26.806Z,89.50
2022-08-19T08:32:03.032Z,89.50
2022-08-19T08:34:30.360Z,89.40
2022-08-19T08:36:57.658Z,89.40
2022-08-19T08:39:24.940Z,89.50
2022-08-19T08:42:10.321Z,89.50
2022-08-19T08:44:51.334Z,89.40
2022-08-19T08:47:23.336Z,89.50
2022-08-19T08:50:12.288Z,89.40
2022-08-19T08:52:45.501Z,89.60
2022-08-19T08:55:20.729Z,89.60
2022-08-19T08:58:08.520Z,89.00
2022-08-19T09:00:39.438Z,88.00
2022-08-19T09:03:17.381Z,89.10
2022-08-19T09:05:57.243Z,90.70
2022-08-19T09:08:46.891Z,91.90
2022-08-19T09:11:42.860Z,92.30
2022-08-19T09:14:56.001Z,92.10
2022-08-19T09:17:36.363Z,91.80
2022-08-19T09:20:17.545Z,91.80
2022-08-19T09:22:47.583Z,91.70
2022-08-19T09:25:24.536Z,91.60
2022-08-19T09:28:02.537Z,91.40
2022-08-19T09:30:40.615Z,91.30
2022-08-19T09:33:08.888Z,91.20
2022-08-19T09:35:49.629Z,90.90
2022-08-19T09:38:20.140Z,91.00
2022-08-19T09:40:47.432Z,91.20
2022-08-19T09:43:14.720Z,91.20
2022-08-19T09:45:42.227Z,91.40
2022-08-19T09:48:11.787Z,91.40
2022-08-19T09:50:51.494Z,91.30
2022-08-19T09:53:25.462Z,91.20
2022-08-19T09:55:56.103Z,91.20
2022-08-19T09:58:28.547Z,91.20
2022-08-19T10:00:56.617Z,91.10
2022-08-19T10:03:25.574Z,91.10
2022-08-19T10:05:59.275Z,91.20
2022-08-19T10:08:31.405Z,91.10
2022-08-19T10:11:00.081Z,90.80
2022-08-19T10:13:47.978Z,91.20
2022-08-19T10:16:22.533Z,91.30
2022-08-19T10:18:59.032Z,91.20
2022-08-19T10:21:32.179Z,91.10
2022-08-19T10:24:02.652Z,91.20
2022-08-19T10:26:33.702Z,91.40
2022-08-19T10:29:01.396Z,91.40
2022-08-19T10:32:00.569Z,91.50
2022-08-19T10:34:27.597Z,91.70
2022-08-19T10:37:00.829Z,91.60
2022-08-19T10:39:31.161Z,91.50
2022-08-19T10:41:58.942Z,91.60
2022-08-19T10:44:32.141Z,91.60
2022-08-19T10:47:00.213Z,91.50
2022-08-19T10:49:28.025Z,91.30
2022-08-19T10:52:32.338Z,91.80
2022-08-19T10:55:18.988Z,91.50
2022-08-19T10:58:04.097Z,91.70
2022-08-19T11:00:32.727Z,91.70
2022-08-19T11:03:00.093Z,91.80
2022-08-19T11:05:27.428Z,92.00
2022-08-19T11:07:54.839Z,92.10
2022-08-19T11:10:22.955Z,92.00
2022-08-19T11:12:54.081Z,91.80
2022-08-19T11:15:22.296Z,92.00
2022-08-19T11:17:49.744Z,92.10
2022-08-19T11:20:17.272Z,91.90
2022-08-19T11:22:44.573Z,92.00
2022-08-19T11:25:12.455Z,91.80
2022-08-19T11:27:43.550Z,92.00
2022-08-19T11:30:13.250Z,92.10
2022-08-19T11:32:48.723Z,92.10
2022-08-19T11:35:17.231Z,91.90
2022-08-19T11:37:44.586Z,92.00
2022-08-19T11:40:12.660Z,92.80
2022-08-19T11:42:58.401Z,92.30
2022-08-19T11:45:27.916Z,92.50
2022-08-19T11:47:55.782Z,92.40
2022-08-19T11:50:25.562Z,91.90
2022-08-19T11:52:57.617Z,92.00
2022-08-19T11:55:25.430Z,92.20
2022-08-19T11:57:52.924Z,91.90
2022-08-19T12:00:20.498Z,92.10
2022-08-19T12:02:47.789Z,92.10
2022-08-19T12:05:15.197Z,91.90
2022-08-19T12:07:43.620Z,92.20
2022-08-19T12:10:11.663Z,92.00
2022-08-19T12:12:43.726Z,91.50
2022-08-19T12:15:15.259Z,91.70
2022-08-19T12:17:43.596Z,91.80
2022-08-19T12:20:12.207Z,92.00
2022-08-19T12:22:40.345Z,92.00
2022-08-19T12:25:10.229Z,91.80
2022-08-19T12:27:40.851Z,91.30
2022-08-19T12:30:13.485Z,91.60
2022-08-19T12:32:41.217Z,91.70
2022-08-19T12:35:11.422Z,91.80
2022-08-19T12:37:39.704Z,91.50
2022-08-19T12:40:07.679Z,91.70
2022-08-19T12:42:35.810Z,91.50
2022-08-19T12:45:03.273Z,91.80
2022-08-19T12:47:33.827Z,91.30
2022-08-19T12:50:10.001Z,91.40
2022-08-19T12:52:38.187Z,91.70
2022-08-19T12:55:08.614Z,91.40
2022-08-19T12:57:37.419Z,91.40
2022-08-19T13:00:14.735Z,91.50
2022-08-19T13:02:45.694Z,91.70
2022-08-19T13:05:17.003Z,91.80
2022-08-19T13:07:47.573Z,92.10
2022-08-19T13:10:16.823Z,91.90
2022-08-19T13:12:45.942Z,91.80
2022-08-19T13:15:15.144Z,91.80
2022-08-19T13:17:43.142Z,91.60
2022-08-19T13:20:12.109Z,91.60
2022-08-19T13:22:39.760Z,91.40
2022-08-19T13:25:08.351Z,91.70
2022-08-19T13:27:36.461Z,91.40
2022-08-19T13:30:24.724Z,91.50
2022-08-19T13:33:10.820Z,91.30
2022-08-19T13:35:49.832Z,91.30
2022-08-19T13:38:22.481Z,91.30
2022-08-19T13:40:51.456Z,91.30
2022-08-19T13:43:23.406Z,91.20
2022-08-19T13:45:54.854Z,91.00
2022-08-19T13:48:22.676Z,91.10
2022-08-19T13:50:50.030Z,91.10
2022-08-19T13:53:18.375Z,90.90
2022-08-19T13:55:45.993Z,91.00
2022-08-19T13:58:14.444Z,91.00
2022-08-19T14:00:47.214Z,90.90
2022-08-19T14:03:15.778Z,90.80
2022-08-19T14:05:43.204Z,90.70
2022-08-19T14:08:10.487Z,90.70
2022-08-19T14:10:37.804Z,90.70
2022-08-19T14:13:05.437Z,90.60
2022-08-19T14:15:33.316Z,90.50
2022-08-19T14:18:00.833Z,90.40
2022-08-19T14:20:28.195Z,90.20
2022-08-19T14:22:56.099Z,90.40
2022-08-19T14:25:29.563Z,90.00
2022-08-19T14:27:57.569Z,90.10
2022-08-19T14:30:35.539Z,90.10
2022-08-19T14:33:03.397Z,89.90
2022-08-19T14:35:35.317Z,89.90
2022-08-19T14:38:07.587Z,89.50
2022-08-19T14:40:35.696Z,89.50
2022-08-19T14:43:05.494Z,89.20
2022-08-19T14:45:35.687Z,89.10
2022-08-19T14:48:09.244Z,89.20
2022-08-19T14:50:46.557Z,89.50
2022-08-19T14:53:13.978Z,88.50
2022-08-19T14:55:46.412Z,89.10
2022-08-19T14:58:29.435Z,89.10
2022-08-19T15:01:00.796Z,89.20
2022-08-19T15:03:30.441Z,89.20
2022-08-19T15:05:58.683Z,89.40
2022-08-19T15:08:27.980Z,89.60
2022-08-19T15:10:56.235Z,88.90
2022-08-19T15:13:25.719Z,88.80
2022-08-19T15:15:53.407Z,89.00
2022-08-19T15:18:21.417Z,89.00
2022-08-19T15:20:50.087Z,89.50
2022-08-19T15:23:18.998Z,89.50
2022-08-19T15:25:46.845Z,89.40
2022-08-19T15:28:17.298Z,89.20
2022-08-19T15:30:44.633Z,89.10
2022-08-19T15:33:15.288Z,90.00
2022-08-19T15:35:43.674Z,89.30
2022-08-19T15:38:14.103Z,89.20
2022-08-19T15:40:42.930Z,89.10
2022-08-19T15:43:13.965Z,88.90
2022-08-19T15:45:44.312Z,88.40
2022-08-19T15:48:14.817Z,88.50
2022-08-19T15:50:42.407Z,88.70
2022-08-19T15:53:11.398Z,88.40
2022-08-19T15:55:44.557Z,88.10
2022-08-19T15:58:32.966Z,87.70
2022-08-19T16:01:21.549Z,88.20
2022-08-19T16:04:14.960Z,88.30
2022-08-19T16:06:51.237Z,87.90
2022-08-19T16:09:26.447Z,87.50
2022-08-19T16:12:02.521Z,87.20
2022-08-19T16:14:33.113Z,87.20
2022-08-19T16:17:00.689Z,87.10
2022-08-19T16:19:28.007Z,87.20
2022-08-19T16:21:56.968Z,86.80
2022-08-19T16:24:26.737Z,86.90
2022-08-19T16:26:54.948Z,87.10
2022-08-19T16:29:34.819Z,87.20
2022-08-19T16:32:10.515Z,87.00
2022-08-19T16:34:40.640Z,86.90
2022-08-19T16:37:09.656Z,86.80
2022-08-19T16:39:37.514Z,86.70
2022-08-19T16:42:07.512Z,86.40
2022-08-19T16:44:36.464Z,85.90
2022-08-19T16:47:03.871Z,86.50
2022-08-19T16:49:54.227Z,86.10
2022-08-19T16:52:19.767Z,86.10
2022-08-19T16:54:48.047Z,85.80
2022-08-19T16:57:16.133Z,86.20
2022-08-19T16:59:49.245Z,86.10
2022-08-19T17:02:18.642Z,86.00
2022-08-19T17:04:48.336Z,86.20
2022-08-19T17:07:25.664Z,86.20
2022-08-19T17:09:52.966Z,86.20
2022-08-19T17:12:20.216Z,86.20
2022-08-19T17:14:47.632Z,86.10
2022-08-19T17:17:15.453Z,86.40
2022-08-19T17:19:44.605Z,86.10
2022-08-19T17:22:13.114Z,86.30
2022-08-19T17:24:41.009Z,86.20
2022-08-19T17:27:09.114Z,86.10
2022-08-19T17:29:36.441Z,86.00
2022-08-19T17:32:05.407Z,86.00
2022-08-19T17:34:33.636Z,86.00
2022-08-19T17:37:00.953Z,86.10
2022-08-19T17:39:28.332Z,85.90
2022-08-19T17:41:55.720Z,86.00
2022-08-19T17:44:29.880Z,86.00
2022-08-19T17:46:57.171Z,86.00
2022-08-19T17:49:24.449Z,86.10
2022-08-19T17:51:52.322Z,86.00
2022-08-19T17:54:20.180Z,86.00
2022-08-19T17:56:48.019Z,85.80
2022-08-19T17:59:16.070Z,85.70
2022-08-19T18:01:53.603Z,85.80
2022-08-19T18:04:24.968Z,85.70
2022-08-19T18:06:55.104Z,85.70
2022-08-19T18:09:28.793Z,85.70
2022-08-19T18:12:07.571Z,85.70
2022-08-19T18:14:37.908Z,85.60
2022-08-19T18:17:13.474Z,85.50
2022-08-19T18:19:43.253Z,85.20
2022-08-19T18:22:24.095Z,85.40
2022-08-19T18:24:51.434Z,86.00
2022-08-19T18:27:18.826Z,86.10
2022-08-19T18:29:46.297Z,86.90
2022-08-19T18:32:15.741Z,87.30
2022-08-19T18:34:44.359Z,86.50
2022-08-19T18:37:13.063Z,87.70
2022-08-19T18:39:59.098Z,87.90
2022-08-19T18:42:45.075Z,87.40
2022-08-19T18:45:32.763Z,87.80
2022-08-19T18:48:27.822Z,87.60
2022-08-19T18:50:57.599Z,87.50
2022-08-19T18:53:26.568Z,87.00
2022-08-19T18:55:55.263Z,88.00
2022-08-19T18:58:34.831Z,88.50
2022-08-19T19:01:14.640Z,88.40
2022-08-19T19:03:46.684Z,86.80
2022-08-19T19:06:28.018Z,87.90
2022-08-19T19:08:55.668Z,88.50
2022-08-19T19:11:30.264Z,89.10
2022-08-19T19:13:57.632Z,87.70
2022-08-19T19:16:24.950Z,88.20
2022-08-19T19:18:52.905Z,89.10
2022-08-19T19:21:23.080Z,89.60
2022-08-19T19:23:52.061Z,89.00
2022-08-19T19:26:19.425Z,89.20
2022-08-19T19:28:47.818Z,89.60
2022-08-19T19:31:18.431Z,89.60
2022-08-19T19:33:46.271Z,87.60
2022-08-19T19:36:13.834Z,88.80
2022-08-19T19:38:48.263Z,88.10
2022-08-19T19:41:19.244Z,87.70
2022-08-19T19:43:46.751Z,88.40
2022-08-19T19:46:15.621Z,89.70
2022-08-19T19:48:42.952Z,90.10
2022-08-19T19:51:10.325Z,90.00
2022-08-19T19:53:37.580Z,89.60
2022-08-19T19:56:05.069Z,89.60
2022-08-19T19:58:37.143Z,89.60
2022-08-19T20:01:09.798Z,89.40
2022-08-19T20:03:37.186Z,90.00
2022-08-19T20:06:04.540Z,90.00
2022-08-19T20:08:55.033Z,89.40
2022-08-19T20:11:43.016Z,90.00
2022-08-19T20:14:16.236Z,90.10
2022-08-19T20:16:45.970Z,90.10
2022-08-19T20:19:17.499Z,89.80
2022-08-19T20:21:49.612Z,89.70
2022-08-19T20:24:27.469Z,89.50
2022-08-19T20:26:56.107Z,89.70
2022-08-19T20:29:37.919Z,89.60
2022-08-19T20:32:07.603Z,89.60
2022-08-19T20:34:34.899Z,89.70
2022-08-19T20:37:02.204Z,89.90
2022-08-19T20:39:29.540Z,90.00
2022-08-19T20:41:56.845Z,89.50
2022-08-19T20:44:25.606Z,88.90
2022-08-19T20:46:56.107Z,89.30
2022-08-19T20:49:27.029Z,90.00
2022-08-19T20:51:56.399Z,90.00
2022-08-19T20:54:24.303Z,89.60
2022-08-19T20:56:52.920Z,89.80
2022-08-19T20:59:22.535Z,89.60
2022-08-19T21:01:51.953Z,90.10
2022-08-19T21:04:21.368Z,90.00
2022-08-19T21:06:49.887Z,88.60
2022-08-19T21:09:17.624Z,89.10
2022-08-19T21:11:45.582Z,89.50
2022-08-19T21:14:13.117Z,89.30
2022-08-19T21:16:40.367Z,89.40
2022-08-19T21:19:07.674Z,89.00
2022-08-19T21:21:35.080Z,88.40
2022-08-19T21:24:02.794Z,89.00
2022-08-19T21:26:30.193Z,89.20
2022-08-19T21:28:57.457Z,88.10
2022-08-19T21:31:24.788Z,88.20
2022-08-19T21:33:52.081Z,88.70
2022-08-19T21:36:19.481Z,88.50
2022-08-19T21:38:46.824Z,89.30
2022-08-19T21:41:14.174Z,88.20
2022-08-19T21:43:41.443Z,89.50
2022-08-19T21:46:09.159Z,89.80
2022-08-19T21:48:36.901Z,88.70
2022-08-19T21:51:04.247Z,88.90
2022-08-19T21:53:34.425Z,88.80
2022-08-19T21:56:03.644Z,88.90
2022-08-19T21:58:31.034Z,89.00
2022-08-19T22:00:59.797Z,88.10
2022-08-19T22:03:27.763Z,89.70
2022-08-19T22:05:55.050Z,89.50
2022-08-19T22:08:22.349Z,89.50
2022-08-19T22:10:49.797Z,89.60
2022-08-19T22:13:18.423Z,89.50
2022-08-19T22:15:46.669Z,89.30
2022-08-19T22:18:15.099Z,89.00
2022-08-19T22:20:42.339Z,89.50
2022-08-19T22:23:16.057Z,89.90
2022-08-19T22:25:47.609Z,89.70
2022-08-19T22:28:19.020Z,88.70
2022-08-19T22:30:56.033Z,89.50
2022-08-19T22:33:25.808Z,89.50
2022-08-19T22:35:53.404Z,89.50
2022-08-19T22:38:21.786Z,88.80
2022-08-19T22:40:50.881Z,89.00
2022-08-19T22:43:21.141Z,88.90
2022-08-19T22:45:50.096Z,88.60
2022-08-19T22:48:20.300Z,88.70
2022-08-19T22:51:08.332Z,88.60
2022-08-19T22:53:38.101Z,89.10
2022-08-19T22:56:10.808Z,89.30
2022-08-19T22:58:42.419Z,88.80
2022-08-19T23:01:27.271Z,88.50
2022-08-19T23:03:59.013Z,88.30
2022-08-19T23:06:33.066Z,88.10
2022-08-19T23:09:05.215Z,87.80
2022-08-19T23:11:41.532Z,88.00
2022-08-19T23:14:10.443Z,87.90
2022-08-19T23:16:38.060Z,87.80
2022-08-19T23:19:07.325Z,87.70
2022-08-19T23:21:36.175Z,87.60
2022-08-19T23:24:04.480Z,88.20
2022-08-19T23:26:35.703Z,88.00
2022-08-19T23:29:24.102Z,87.80
2022-08-19T23:31:51.813Z,88.00
2022-08-19T23:34:19.294Z,88.00
2022-08-19T23:36:46.560Z,88.00
2022-08-19T23:39:13.991Z,88.00
2022-08-19T23:41:41.269Z,88.10
2022-08-19T23:44:14.593Z,88.10
2022-08-19T23:46:55.008Z,88.20
2022-08-19T23:49:24.503Z,88.20
2022-08-19T23:51:52.611Z,88.20
2022-08-19T23:54:19.921Z,88.20
2022-08-19T23:56:47.300Z,88.20
2022-08-19T23:59:14.620Z,88.20
